sensor_id;sensor_type;location;lat;lon;timestamp;P1;durP1;ratioP1;P2;durP2;ratioP2
68247;SDS011;55064;49.636;12.164;2023-06-05T00:17:52;5.60;;;1.70;;
68247;SDS011;55064;49.636;12.164;2023-06-05T00:20:22;6.20;;;1.40;;
68247;SDS011;55064;49.636;12.164;2023-06-05T00:25:41;4.38;;;1.50;;
68247;SDS011;55064;49.636;12.164;2023-06-05T00:31:28;4.23;;;1.50;;
68247;SDS011;55064;49.636;12.164;2023-06-05T00:37:15;4.75;;;1.50;;
68247;SDS011;55064;49.636;12.164;2023-06-05T00:39:41;5.77;;;1.90;;
68247;SDS011;55064;49.636;12.164;2023-06-05T00:42:07;5.00;;;1.80;;
68247;SDS011;55064;49.636;12.164;2023-06-05T00:44:35;6.15;;;1.90;;
68247;SDS011;55064;49.636;12.164;2023-06-05T00:47:01;4.47;;;1.60;;
68247;SDS011;55064;49.636;12.164;2023-06-05T00:49:31;4.82;;;1.70;;
68247;SDS011;55064;49.636;12.164;2023-06-05T00:58:12;4.30;;;1.40;;
68247;SDS011;55064;49.636;12.164;2023-06-05T01:04:12;5.20;;;1.63;;
68247;SDS011;55064;49.636;12.164;2023-06-05T01:06:44;5.43;;;1.70;;
68247;SDS011;55064;49.636;12.164;2023-06-05T01:17:57;4.50;;;1.40;;
68247;SDS011;55064;49.636;12.164;2023-06-05T01:23:53;4.88;;;1.75;;
68247;SDS011;55064;49.636;12.164;2023-06-05T01:26:23;5.45;;;1.52;;
68247;SDS011;55064;49.636;12.164;2023-06-05T01:35:11;4.68;;;1.60;;
68247;SDS011;55064;49.636;12.164;2023-06-05T01:37:45;6.90;;;1.73;;
68247;SDS011;55064;49.636;12.164;2023-06-05T01:50:02;5.80;;;1.70;;
68247;SDS011;55064;49.636;12.164;2023-06-05T01:59:04;6.73;;;1.80;;
68247;SDS011;55064;49.636;12.164;2023-06-05T02:01:33;4.47;;;1.60;;
68247;SDS011;55064;49.636;12.164;2023-06-05T02:03:59;4.68;;;1.63;;
68247;SDS011;55064;49.636;12.164;2023-06-05T02:06:35;5.15;;;1.65;;
68247;SDS011;55064;49.636;12.164;2023-06-05T02:09:11;7.90;;;1.73;;
68247;SDS011;55064;49.636;12.164;2023-06-05T02:18:48;5.07;;;1.48;;
68247;SDS011;55064;49.636;12.164;2023-06-05T02:31:19;4.85;;;1.70;;
68247;SDS011;55064;49.636;12.164;2023-06-05T02:36:32;4.73;;;1.60;;
68247;SDS011;55064;49.636;12.164;2023-06-05T02:38:58;5.95;;;1.70;;
68247;SDS011;55064;49.636;12.164;2023-06-05T02:47:51;6.82;;;1.80;;
68247;SDS011;55064;49.636;12.164;2023-06-05T02:50:20;6.50;;;1.80;;
68247;SDS011;55064;49.636;12.164;2023-06-05T02:52:46;4.97;;;1.70;;
68247;SDS011;55064;49.636;12.164;2023-06-05T03:01:55;5.97;;;1.63;;
68247;SDS011;55064;49.636;12.164;2023-06-05T03:07:31;5.57;;;1.52;;
68247;SDS011;55064;49.636;12.164;2023-06-05T03:13:21;5.30;;;1.65;;
68247;SDS011;55064;49.636;12.164;2023-06-05T03:18:57;5.13;;;1.60;;
68247;SDS011;55064;49.636;12.164;2023-06-05T03:37:45;6.18;;;1.70;;
68247;SDS011;55064;49.636;12.164;2023-06-05T03:43:32;6.15;;;1.70;;
68247;SDS011;55064;49.636;12.164;2023-06-05T03:49:19;7.05;;;1.80;;
68247;SDS011;55064;49.636;12.164;2023-06-05T03:55:09;6.03;;;1.92;;
68247;SDS011;55064;49.636;12.164;2023-06-05T04:04:00;5.07;;;1.77;;
68247;SDS011;55064;49.636;12.164;2023-06-05T04:06:48;5.13;;;1.60;;
68247;SDS011;55064;49.636;12.164;2023-06-05T04:26:21;6.75;;;1.90;;
68247;SDS011;55064;49.636;12.164;2023-06-05T04:31:57;4.95;;;1.60;;
68247;SDS011;55064;49.636;12.164;2023-06-05T04:37:40;5.50;;;1.60;;
68247;SDS011;55064;49.636;12.164;2023-06-05T04:40:16;5.93;;;1.80;;
68247;SDS011;55064;49.636;12.164;2023-06-05T04:42:45;5.90;;;1.55;;
68247;SDS011;55064;49.636;12.164;2023-06-05T04:48:34;5.93;;;2.10;;
68247;SDS011;55064;49.636;12.164;2023-06-05T04:51:02;4.60;;;1.40;;
68247;SDS011;55064;49.636;12.164;2023-06-05T04:53:41;5.20;;;1.77;;
68247;SDS011;55064;49.636;12.164;2023-06-05T04:56:19;6.55;;;1.90;;
68247;SDS011;55064;49.636;12.164;2023-06-05T04:58:50;6.25;;;1.83;;
68247;SDS011;55064;49.636;12.164;2023-06-05T05:04:39;5.77;;;1.70;;
68247;SDS011;55064;49.636;12.164;2023-06-05T05:10:26;12.60;;;2.83;;
68247;SDS011;55064;49.636;12.164;2023-06-05T05:18:56;6.30;;;1.83;;
68247;SDS011;55064;49.636;12.164;2023-06-05T05:21:34;7.47;;;2.20;;
68247;SDS011;55064;49.636;12.164;2023-06-05T05:24:08;6.45;;;1.73;;
68247;SDS011;55064;49.636;12.164;2023-06-05T05:26:41;4.90;;;1.90;;
68247;SDS011;55064;49.636;12.164;2023-06-05T05:32:42;5.53;;;1.90;;
68247;SDS011;55064;49.636;12.164;2023-06-05T05:38:00;6.38;;;1.90;;
68247;SDS011;55064;49.636;12.164;2023-06-05T05:46:45;6.03;;;2.00;;
68247;SDS011;55064;49.636;12.164;2023-06-05T05:49:13;5.88;;;1.90;;
68247;SDS011;55064;49.636;12.164;2023-06-05T05:51:45;7.90;;;2.38;;
68247;SDS011;55064;49.636;12.164;2023-06-05T05:54:18;6.43;;;2.03;;
68247;SDS011;55064;49.636;12.164;2023-06-05T06:02:18;5.50;;;1.80;;
68247;SDS011;55064;49.636;12.164;2023-06-05T06:04:47;8.00;;;3.92;;
68247;SDS011;55064;49.636;12.164;2023-06-05T06:07:15;7.37;;;2.50;;
68247;SDS011;55064;49.636;12.164;2023-06-05T06:09:41;7.07;;;2.20;;
68247;SDS011;55064;49.636;12.164;2023-06-05T06:12:07;6.53;;;2.10;;
68247;SDS011;55064;49.636;12.164;2023-06-05T06:14:35;6.20;;;1.98;;
68247;SDS011;55064;49.636;12.164;2023-06-05T06:17:01;7.90;;;2.30;;
68247;SDS011;55064;49.636;12.164;2023-06-05T06:19:27;6.33;;;2.00;;
68247;SDS011;55064;49.636;12.164;2023-06-05T06:21:54;6.50;;;2.20;;
68247;SDS011;55064;49.636;12.164;2023-06-05T06:24:20;6.80;;;1.98;;
68247;SDS011;55064;49.636;12.164;2023-06-05T06:26:49;5.63;;;2.17;;
68247;SDS011;55064;49.636;12.164;2023-06-05T06:29:20;6.05;;;2.13;;
68247;SDS011;55064;49.636;12.164;2023-06-05T06:31:49;5.27;;;2.10;;
68247;SDS011;55064;49.636;12.164;2023-06-05T06:34:15;6.55;;;2.13;;
68247;SDS011;55064;49.636;12.164;2023-06-05T06:36:43;5.72;;;2.13;;
68247;SDS011;55064;49.636;12.164;2023-06-05T06:39:12;5.95;;;2.28;;
68247;SDS011;55064;49.636;12.164;2023-06-05T06:41:38;6.45;;;2.00;;
68247;SDS011;55064;49.636;12.164;2023-06-05T06:44:03;7.10;;;2.00;;
68247;SDS011;55064;49.636;12.164;2023-06-05T06:46:32;6.22;;;2.17;;
68247;SDS011;55064;49.636;12.164;2023-06-05T06:49:00;6.78;;;2.10;;
68247;SDS011;55064;49.636;12.164;2023-06-05T06:51:29;6.70;;;2.20;;
68247;SDS011;55064;49.636;12.164;2023-06-05T06:53:57;6.22;;;2.30;;
68247;SDS011;55064;49.636;12.164;2023-06-05T06:56:23;6.63;;;2.30;;
68247;SDS011;55064;49.636;12.164;2023-06-05T06:58:50;8.98;;;2.22;;
68247;SDS011;55064;49.636;12.164;2023-06-05T07:01:18;6.88;;;2.30;;
68247;SDS011;55064;49.636;12.164;2023-06-05T07:03:46;6.97;;;2.30;;
68247;SDS011;55064;49.636;12.164;2023-06-05T07:06:13;7.65;;;2.30;;
68247;SDS011;55064;49.636;12.164;2023-06-05T07:08:40;7.30;;;2.30;;
68247;SDS011;55064;49.636;12.164;2023-06-05T07:11:05;6.87;;;2.37;;
68247;SDS011;55064;49.636;12.164;2023-06-05T07:13:31;6.93;;;2.40;;
68247;SDS011;55064;49.636;12.164;2023-06-05T07:15:57;6.23;;;2.13;;
68247;SDS011;55064;49.636;12.164;2023-06-05T07:18:23;6.65;;;2.38;;
68247;SDS011;55064;49.636;12.164;2023-06-05T07:20:50;6.57;;;2.43;;
68247;SDS011;55064;49.636;12.164;2023-06-05T07:23:18;6.88;;;2.58;;
68247;SDS011;55064;49.636;12.164;2023-06-05T07:25:44;9.07;;;2.60;;
68247;SDS011;55064;49.636;12.164;2023-06-05T07:28:10;6.60;;;2.70;;
68247;SDS011;55064;49.636;12.164;2023-06-05T07:30:37;6.73;;;2.93;;
68247;SDS011;55064;49.636;12.164;2023-06-05T07:33:03;7.82;;;2.88;;
68247;SDS011;55064;49.636;12.164;2023-06-05T07:35:34;7.15;;;2.58;;
68247;SDS011;55064;49.636;12.164;2023-06-05T07:38:00;6.83;;;2.73;;
68247;SDS011;55064;49.636;12.164;2023-06-05T07:40:26;8.90;;;3.40;;
68247;SDS011;55064;49.636;12.164;2023-06-05T07:42:52;8.37;;;2.97;;
68247;SDS011;55064;49.636;12.164;2023-06-05T07:45:19;9.00;;;3.65;;
68247;SDS011;55064;49.636;12.164;2023-06-05T07:47:44;8.50;;;3.40;;
68247;SDS011;55064;49.636;12.164;2023-06-05T07:50:10;7.03;;;3.17;;
68247;SDS011;55064;49.636;12.164;2023-06-05T07:52:38;11.95;;;3.47;;
68247;SDS011;55064;49.636;12.164;2023-06-05T07:55:03;10.17;;;4.10;;
68247;SDS011;55064;49.636;12.164;2023-06-05T07:57:29;6.55;;;3.42;;
68247;SDS011;55064;49.636;12.164;2023-06-05T07:59:55;10.07;;;4.10;;
68247;SDS011;55064;49.636;12.164;2023-06-05T08:02:20;8.02;;;3.80;;
68247;SDS011;55064;49.636;12.164;2023-06-05T08:04:49;8.53;;;4.00;;
68247;SDS011;55064;49.636;12.164;2023-06-05T08:07:17;12.80;;;3.85;;
68247;SDS011;55064;49.636;12.164;2023-06-05T08:09:42;12.45;;;3.50;;
68247;SDS011;55064;49.636;12.164;2023-06-05T08:12:08;7.03;;;3.30;;
68247;SDS011;55064;49.636;12.164;2023-06-05T08:14:36;6.68;;;3.65;;
68247;SDS011;55064;49.636;12.164;2023-06-05T08:17:03;8.05;;;3.70;;
68247;SDS011;55064;49.636;12.164;2023-06-05T08:19:31;9.63;;;4.03;;
68247;SDS011;55064;49.636;12.164;2023-06-05T08:21:58;8.77;;;4.05;;
68247;SDS011;55064;49.636;12.164;2023-06-05T08:24:26;7.73;;;3.50;;
68247;SDS011;55064;49.636;12.164;2023-06-05T08:26:53;9.13;;;3.42;;
68247;SDS011;55064;49.636;12.164;2023-06-05T08:29:24;7.35;;;3.58;;
68247;SDS011;55064;49.636;12.164;2023-06-05T08:31:49;8.03;;;3.63;;
68247;SDS011;55064;49.636;12.164;2023-06-05T08:34:15;7.47;;;3.37;;
68247;SDS011;55064;49.636;12.164;2023-06-05T08:36:43;7.68;;;3.97;;
68247;SDS011;55064;49.636;12.164;2023-06-05T08:39:11;7.72;;;3.38;;
68247;SDS011;55064;49.636;12.164;2023-06-05T08:41:38;8.40;;;3.80;;
68247;SDS011;55064;49.636;12.164;2023-06-05T08:44:04;8.15;;;3.65;;
68247;SDS011;55064;49.636;12.164;2023-06-05T08:46:29;7.53;;;3.40;;
68247;SDS011;55064;49.636;12.164;2023-06-05T08:48:58;7.00;;;3.50;;
68247;SDS011;55064;49.636;12.164;2023-06-05T08:51:31;8.48;;;3.65;;
68247;SDS011;55064;49.636;12.164;2023-06-05T08:56:26;8.07;;;3.55;;
68247;SDS011;55064;49.636;12.164;2023-06-05T08:58:52;6.87;;;3.20;;
68247;SDS011;55064;49.636;12.164;2023-06-05T09:01:25;7.45;;;3.45;;
68247;SDS011;55064;49.636;12.164;2023-06-05T09:03:51;7.50;;;3.50;;
68247;SDS011;55064;49.636;12.164;2023-06-05T09:06:17;6.80;;;3.60;;
68247;SDS011;55064;49.636;12.164;2023-06-05T09:08:46;7.00;;;3.80;;
68247;SDS011;55064;49.636;12.164;2023-06-05T09:13:47;8.18;;;3.50;;
68247;SDS011;55064;49.636;12.164;2023-06-05T09:16:12;7.40;;;3.40;;
68247;SDS011;55064;49.636;12.164;2023-06-05T09:21:25;6.10;;;2.87;;
68247;SDS011;55064;49.636;12.164;2023-06-05T09:24:15;6.32;;;3.20;;
68247;SDS011;55064;49.636;12.164;2023-06-05T09:27:01;7.70;;;3.45;;
68247;SDS011;55064;49.636;12.164;2023-06-05T09:31:57;5.97;;;3.00;;
68247;SDS011;55064;49.636;12.164;2023-06-05T09:34:27;6.93;;;2.97;;
68247;SDS011;55064;49.636;12.164;2023-06-05T09:36:55;7.57;;;3.08;;
68247;SDS011;55064;49.636;12.164;2023-06-05T09:39:24;6.22;;;2.90;;
68247;SDS011;55064;49.636;12.164;2023-06-05T09:41:51;8.20;;;2.70;;
68247;SDS011;55064;49.636;12.164;2023-06-05T09:44:18;7.53;;;3.60;;
68247;SDS011;55064;49.636;12.164;2023-06-05T09:46:51;6.97;;;3.20;;
68247;SDS011;55064;49.636;12.164;2023-06-05T09:49:18;7.85;;;3.35;;
68247;SDS011;55064;49.636;12.164;2023-06-05T09:51:43;7.15;;;3.15;;
68247;SDS011;55064;49.636;12.164;2023-06-05T09:54:11;6.22;;;3.30;;
68247;SDS011;55064;49.636;12.164;2023-06-05T09:56:42;6.38;;;3.45;;
68247;SDS011;55064;49.636;12.164;2023-06-05T09:59:13;9.50;;;3.80;;
68247;SDS011;55064;49.636;12.164;2023-06-05T10:01:40;7.63;;;3.58;;
68247;SDS011;55064;49.636;12.164;2023-06-05T10:04:09;7.50;;;3.40;;
68247;SDS011;55064;49.636;12.164;2023-06-05T10:06:35;7.15;;;3.65;;
68247;SDS011;55064;49.636;12.164;2023-06-05T10:09:02;7.97;;;3.70;;
68247;SDS011;55064;49.636;12.164;2023-06-05T10:11:28;7.30;;;3.33;;
68247;SDS011;55064;49.636;12.164;2023-06-05T10:13:54;7.70;;;3.40;;
68247;SDS011;55064;49.636;12.164;2023-06-05T10:16:23;7.18;;;3.03;;
68247;SDS011;55064;49.636;12.164;2023-06-05T10:18:49;7.43;;;3.25;;
68247;SDS011;55064;49.636;12.164;2023-06-05T10:21:15;6.88;;;3.30;;
68247;SDS011;55064;49.636;12.164;2023-06-05T10:23:42;8.00;;;3.07;;
68247;SDS011;55064;49.636;12.164;2023-06-05T10:26:13;6.88;;;2.90;;
68247;SDS011;55064;49.636;12.164;2023-06-05T10:29:06;6.28;;;3.20;;
68247;SDS011;55064;49.636;12.164;2023-06-05T10:39:49;7.20;;;3.10;;
68247;SDS011;55064;49.636;12.164;2023-06-05T10:42:25;6.07;;;3.30;;
68247;SDS011;55064;49.636;12.164;2023-06-05T10:44:51;7.57;;;3.47;;
68247;SDS011;55064;49.636;12.164;2023-06-05T10:52:44;8.20;;;3.88;;
68247;SDS011;55064;49.636;12.164;2023-06-05T10:55:15;7.90;;;3.70;;
68247;SDS011;55064;49.636;12.164;2023-06-05T10:58:14;8.23;;;3.55;;
68247;SDS011;55064;49.636;12.164;2023-06-05T11:00:34;9.27;;;3.83;;
68247;SDS011;55064;49.636;12.164;2023-06-05T11:03:02;6.97;;;3.60;;
68247;SDS011;55064;49.636;12.164;2023-06-05T11:05:30;8.65;;;3.75;;
68247;SDS011;55064;49.636;12.164;2023-06-05T11:08:16;8.70;;;3.92;;
68247;SDS011;55064;49.636;12.164;2023-06-05T11:11:04;10.30;;;4.03;;
68247;SDS011;55064;49.636;12.164;2023-06-05T11:16:31;7.80;;;4.05;;
68247;SDS011;55064;49.636;12.164;2023-06-05T11:22:04;7.70;;;3.88;;
68247;SDS011;55064;49.636;12.164;2023-06-05T11:24:32;7.57;;;3.90;;
68247;SDS011;55064;49.636;12.164;2023-06-05T11:26:59;8.67;;;4.23;;
68247;SDS011;55064;49.636;12.164;2023-06-05T11:29:24;8.07;;;3.90;;
68247;SDS011;55064;49.636;12.164;2023-06-05T11:31:50;9.33;;;3.90;;
68247;SDS011;55064;49.636;12.164;2023-06-05T11:34:16;6.95;;;3.85;;
68247;SDS011;55064;49.636;12.164;2023-06-05T11:36:43;7.78;;;4.20;;
68247;SDS011;55064;49.636;12.164;2023-06-05T11:39:12;7.13;;;3.50;;
68247;SDS011;55064;49.636;12.164;2023-06-05T11:41:44;9.90;;;3.90;;
68247;SDS011;55064;49.636;12.164;2023-06-05T11:44:11;10.40;;;4.10;;
68247;SDS011;55064;49.636;12.164;2023-06-05T11:46:40;10.13;;;4.28;;
68247;SDS011;55064;49.636;12.164;2023-06-05T11:49:18;8.77;;;4.17;;
68247;SDS011;55064;49.636;12.164;2023-06-05T11:51:51;7.90;;;4.35;;
68247;SDS011;55064;49.636;12.164;2023-06-05T11:54:31;8.40;;;4.07;;
68247;SDS011;55064;49.636;12.164;2023-06-05T11:57:06;10.50;;;4.85;;
68247;SDS011;55064;49.636;12.164;2023-06-05T11:59:36;7.70;;;4.38;;
68247;SDS011;55064;49.636;12.164;2023-06-05T12:02:02;8.10;;;4.17;;
68247;SDS011;55064;49.636;12.164;2023-06-05T12:04:28;7.13;;;4.15;;
68247;SDS011;55064;49.636;12.164;2023-06-05T12:06:55;8.05;;;4.20;;
68247;SDS011;55064;49.636;12.164;2023-06-05T12:09:21;8.80;;;4.53;;
68247;SDS011;55064;49.636;12.164;2023-06-05T12:11:47;13.32;;;4.85;;
68247;SDS011;55064;49.636;12.164;2023-06-05T12:14:13;7.10;;;4.15;;
68247;SDS011;55064;49.636;12.164;2023-06-05T12:16:55;9.23;;;4.10;;
68247;SDS011;55064;49.636;12.164;2023-06-05T12:19:27;8.63;;;4.17;;
68247;SDS011;55064;49.636;12.164;2023-06-05T12:22:02;9.60;;;4.35;;
68247;SDS011;55064;49.636;12.164;2023-06-05T12:24:31;8.90;;;4.45;;
68247;SDS011;55064;49.636;12.164;2023-06-05T12:26:59;7.75;;;4.10;;
68247;SDS011;55064;49.636;12.164;2023-06-05T12:31:57;7.67;;;4.47;;
68247;SDS011;55064;49.636;12.164;2023-06-05T12:34:47;8.73;;;4.63;;
68247;SDS011;55064;49.636;12.164;2023-06-05T12:37:28;7.07;;;3.88;;
68247;SDS011;55064;49.636;12.164;2023-06-05T12:39:59;7.72;;;4.10;;
68247;SDS011;55064;49.636;12.164;2023-06-05T12:42:26;6.70;;;3.97;;
68247;SDS011;55064;49.636;12.164;2023-06-05T12:45:00;8.70;;;4.30;;
68247;SDS011;55064;49.636;12.164;2023-06-05T12:47:26;12.93;;;4.57;;
68247;SDS011;55064;49.636;12.164;2023-06-05T12:49:52;7.63;;;4.20;;
68247;SDS011;55064;49.636;12.164;2023-06-05T12:52:20;8.02;;;4.25;;
68247;SDS011;55064;49.636;12.164;2023-06-05T12:54:55;7.30;;;4.38;;
68247;SDS011;55064;49.636;12.164;2023-06-05T12:57:22;22.83;;;5.18;;
68247;SDS011;55064;49.636;12.164;2023-06-05T12:59:51;7.88;;;4.45;;
68247;SDS011;55064;49.636;12.164;2023-06-05T13:02:18;7.87;;;4.10;;
68247;SDS011;55064;49.636;12.164;2023-06-05T13:04:46;9.80;;;4.70;;
68247;SDS011;55064;49.636;12.164;2023-06-05T13:07:13;9.30;;;4.33;;
68247;SDS011;55064;49.636;12.164;2023-06-05T13:09:38;7.68;;;4.60;;
68247;SDS011;55064;49.636;12.164;2023-06-05T13:12:10;13.63;;;4.78;;
68247;SDS011;55064;49.636;12.164;2023-06-05T13:14:38;10.40;;;4.43;;
68247;SDS011;55064;49.636;12.164;2023-06-05T13:17:04;8.00;;;4.30;;
68247;SDS011;55064;49.636;12.164;2023-06-05T13:19:30;13.10;;;4.53;;
68247;SDS011;55064;49.636;12.164;2023-06-05T13:21:55;9.85;;;4.80;;
68247;SDS011;55064;49.636;12.164;2023-06-05T13:24:23;8.00;;;4.50;;
68247;SDS011;55064;49.636;12.164;2023-06-05T13:26:48;8.25;;;4.32;;
68247;SDS011;55064;49.636;12.164;2023-06-05T13:29:14;7.60;;;4.50;;
68247;SDS011;55064;49.636;12.164;2023-06-05T13:31:40;8.30;;;4.45;;
68247;SDS011;55064;49.636;12.164;2023-06-05T13:34:05;8.13;;;4.70;;
68247;SDS011;55064;49.636;12.164;2023-06-05T13:36:33;8.02;;;4.53;;
68247;SDS011;55064;49.636;12.164;2023-06-05T13:39:02;8.95;;;4.60;;
68247;SDS011;55064;49.636;12.164;2023-06-05T13:41:27;7.50;;;4.40;;
68247;SDS011;55064;49.636;12.164;2023-06-05T13:43:52;7.10;;;4.03;;
68247;SDS011;55064;49.636;12.164;2023-06-05T13:46:22;9.15;;;4.80;;
68247;SDS011;55064;49.636;12.164;2023-06-05T13:48:50;7.43;;;4.28;;
68247;SDS011;55064;49.636;12.164;2023-06-05T13:51:15;8.50;;;4.30;;
68247;SDS011;55064;49.636;12.164;2023-06-05T13:53:41;7.78;;;4.50;;
68247;SDS011;55064;49.636;12.164;2023-06-05T13:56:06;9.33;;;4.27;;
68247;SDS011;55064;49.636;12.164;2023-06-05T13:58:32;10.30;;;4.70;;
68247;SDS011;55064;49.636;12.164;2023-06-05T14:01:00;10.88;;;4.93;;
68247;SDS011;55064;49.636;12.164;2023-06-05T14:03:38;8.55;;;4.35;;
68247;SDS011;55064;49.636;12.164;2023-06-05T14:06:11;10.10;;;5.00;;
68247;SDS011;55064;49.636;12.164;2023-06-05T14:11:28;8.63;;;4.72;;
68247;SDS011;55064;49.636;12.164;2023-06-05T14:13:54;8.75;;;4.88;;
68247;SDS011;55064;49.636;12.164;2023-06-05T14:16:22;9.33;;;4.63;;
68247;SDS011;55064;49.636;12.164;2023-06-05T14:18:47;8.23;;;4.78;;
68247;SDS011;55064;49.636;12.164;2023-06-05T14:21:14;7.47;;;4.00;;
68247;SDS011;55064;49.636;12.164;2023-06-05T14:23:41;9.63;;;3.97;;
68247;SDS011;55064;49.636;12.164;2023-06-05T14:26:13;9.13;;;4.53;;
68247;SDS011;55064;49.636;12.164;2023-06-05T14:28:40;10.45;;;4.18;;
68247;SDS011;55064;49.636;12.164;2023-06-05T14:31:14;10.77;;;4.80;;
68247;SDS011;55064;49.636;12.164;2023-06-05T14:33:39;8.45;;;4.43;;
68247;SDS011;55064;49.636;12.164;2023-06-05T14:36:07;8.25;;;4.68;;
68247;SDS011;55064;49.636;12.164;2023-06-05T14:38:33;8.40;;;4.38;;
68247;SDS011;55064;49.636;12.164;2023-06-05T14:41:01;9.00;;;4.80;;
68247;SDS011;55064;49.636;12.164;2023-06-05T14:43:27;8.18;;;4.32;;
68247;SDS011;55064;49.636;12.164;2023-06-05T14:45:55;10.32;;;5.00;;
68247;SDS011;55064;49.636;12.164;2023-06-05T14:48:21;12.30;;;5.20;;
68247;SDS011;55064;49.636;12.164;2023-06-05T14:50:47;9.40;;;4.45;;
68247;SDS011;55064;49.636;12.164;2023-06-05T14:53:15;9.00;;;4.17;;
68247;SDS011;55064;49.636;12.164;2023-06-05T14:55:41;7.97;;;4.78;;
68247;SDS011;55064;49.636;12.164;2023-06-05T14:58:07;9.57;;;4.47;;
68247;SDS011;55064;49.636;12.164;2023-06-05T15:00:37;8.45;;;4.55;;
68247;SDS011;55064;49.636;12.164;2023-06-05T15:03:05;9.80;;;4.80;;
68247;SDS011;55064;49.636;12.164;2023-06-05T15:05:30;8.13;;;4.50;;
68247;SDS011;55064;49.636;12.164;2023-06-05T15:07:57;8.65;;;4.63;;
68247;SDS011;55064;49.636;12.164;2023-06-05T15:10:23;9.13;;;4.17;;
68247;SDS011;55064;49.636;12.164;2023-06-05T15:12:52;8.35;;;4.60;;
68247;SDS011;55064;49.636;12.164;2023-06-05T15:15:25;10.10;;;4.90;;
68247;SDS011;55064;49.636;12.164;2023-06-05T15:17:51;8.55;;;5.15;;
68247;SDS011;55064;49.636;12.164;2023-06-05T15:20:19;8.48;;;4.75;;
68247;SDS011;55064;49.636;12.164;2023-06-05T15:22:46;7.47;;;4.50;;
68247;SDS011;55064;49.636;12.164;2023-06-05T15:25:12;11.15;;;4.30;;
68247;SDS011;55064;49.636;12.164;2023-06-05T15:27:42;8.02;;;4.40;;
68247;SDS011;55064;49.636;12.164;2023-06-05T15:30:07;9.17;;;4.10;;
68247;SDS011;55064;49.636;12.164;2023-06-05T15:32:33;8.60;;;4.35;;
68247;SDS011;55064;49.636;12.164;2023-06-05T15:34:59;6.90;;;3.50;;
68247;SDS011;55064;49.636;12.164;2023-06-05T15:37:25;9.57;;;4.15;;
68247;SDS011;55064;49.636;12.164;2023-06-05T15:39:52;7.83;;;3.87;;
68247;SDS011;55064;49.636;12.164;2023-06-05T15:42:27;6.97;;;3.67;;
68247;SDS011;55064;49.636;12.164;2023-06-05T15:45:04;6.28;;;3.13;;
68247;SDS011;55064;49.636;12.164;2023-06-05T15:47:34;7.40;;;3.50;;
68247;SDS011;55064;49.636;12.164;2023-06-05T15:50:03;5.87;;;3.03;;
68247;SDS011;55064;49.636;12.164;2023-06-05T15:52:35;5.85;;;2.55;;
68247;SDS011;55064;49.636;12.164;2023-06-05T15:55:10;6.63;;;3.40;;
68247;SDS011;55064;49.636;12.164;2023-06-05T15:57:36;8.25;;;3.60;;
68247;SDS011;55064;49.636;12.164;2023-06-05T16:00:18;6.85;;;3.10;;
68247;SDS011;55064;49.636;12.164;2023-06-05T16:02:44;8.53;;;3.17;;
68247;SDS011;55064;49.636;12.164;2023-06-05T16:05:18;6.53;;;2.67;;
68247;SDS011;55064;49.636;12.164;2023-06-05T16:07:51;7.60;;;3.33;;
68247;SDS011;55064;49.636;12.164;2023-06-05T16:13:53;7.45;;;3.00;;
68247;SDS011;55064;49.636;12.164;2023-06-05T16:23:17;6.70;;;3.10;;
68247;SDS011;55064;49.636;12.164;2023-06-05T16:32:12;6.00;;;2.63;;
68247;SDS011;55064;49.636;12.164;2023-06-05T16:34:38;7.07;;;3.13;;
68247;SDS011;55064;49.636;12.164;2023-06-05T16:37:19;6.65;;;2.75;;
68247;SDS011;55064;49.636;12.164;2023-06-05T16:39:44;6.63;;;2.95;;
68247;SDS011;55064;49.636;12.164;2023-06-05T16:42:10;5.57;;;2.80;;
68247;SDS011;55064;49.636;12.164;2023-06-05T16:44:37;5.82;;;2.97;;
68247;SDS011;55064;49.636;12.164;2023-06-05T16:47:03;5.90;;;3.10;;
68247;SDS011;55064;49.636;12.164;2023-06-05T16:49:29;6.78;;;2.97;;
68247;SDS011;55064;49.636;12.164;2023-06-05T16:51:55;6.13;;;2.70;;
68247;SDS011;55064;49.636;12.164;2023-06-05T16:54:22;6.38;;;2.95;;
68247;SDS011;55064;49.636;12.164;2023-06-05T16:56:49;5.97;;;2.80;;
68247;SDS011;55064;49.636;12.164;2023-06-05T16:59:21;6.40;;;2.95;;
68247;SDS011;55064;49.636;12.164;2023-06-05T17:01:47;6.73;;;2.80;;
68247;SDS011;55064;49.636;12.164;2023-06-05T17:04:13;8.93;;;3.00;;
68247;SDS011;55064;49.636;12.164;2023-06-05T17:06:41;6.20;;;2.83;;
68247;SDS011;55064;49.636;12.164;2023-06-05T17:09:10;6.83;;;3.00;;
68247;SDS011;55064;49.636;12.164;2023-06-05T17:11:38;7.82;;;2.80;;
68247;SDS011;55064;49.636;12.164;2023-06-05T17:14:03;6.75;;;3.42;;
68247;SDS011;55064;49.636;12.164;2023-06-05T17:16:31;8.40;;;3.87;;
68247;SDS011;55064;49.636;12.164;2023-06-05T17:18:59;6.05;;;2.83;;
68247;SDS011;55064;49.636;12.164;2023-06-05T17:21:25;5.87;;;2.37;;
68247;SDS011;55064;49.636;12.164;2023-06-05T17:23:54;6.88;;;3.13;;
68247;SDS011;55064;49.636;12.164;2023-06-05T17:29:24;7.05;;;3.60;;
68247;SDS011;55064;49.636;12.164;2023-06-05T17:31:50;6.75;;;3.22;;
68247;SDS011;55064;49.636;12.164;2023-06-05T17:34:17;8.77;;;3.27;;
68247;SDS011;55064;49.636;12.164;2023-06-05T17:36:51;8.80;;;3.63;;
68247;SDS011;55064;49.636;12.164;2023-06-05T17:39:16;6.68;;;2.97;;
68247;SDS011;55064;49.636;12.164;2023-06-05T17:41:42;7.47;;;3.40;;
68247;SDS011;55064;49.636;12.164;2023-06-05T17:47:32;8.23;;;3.20;;
68247;SDS011;55064;49.636;12.164;2023-06-05T18:08:23;6.45;;;3.00;;
68247;SDS011;55064;49.636;12.164;2023-06-05T18:26:10;6.85;;;3.28;;
68247;SDS011;55064;49.636;12.164;2023-06-05T18:37:25;7.70;;;3.28;;
68247;SDS011;55064;49.636;12.164;2023-06-05T18:39:50;8.00;;;4.27;;
68247;SDS011;55064;49.636;12.164;2023-06-05T18:48:53;5.82;;;2.88;;
68247;SDS011;55064;49.636;12.164;2023-06-05T18:54:23;6.55;;;2.97;;
68247;SDS011;55064;49.636;12.164;2023-06-05T18:56:49;6.07;;;3.13;;
68247;SDS011;55064;49.636;12.164;2023-06-05T18:59:17;6.77;;;3.30;;
68247;SDS011;55064;49.636;12.164;2023-06-05T19:01:46;6.07;;;2.97;;
68247;SDS011;55064;49.636;12.164;2023-06-05T19:07:40;5.72;;;2.70;;
68247;SDS011;55064;49.636;12.164;2023-06-05T19:13:28;6.10;;;2.70;;
68247;SDS011;55064;49.636;12.164;2023-06-05T19:26:01;10.48;;;3.20;;
68247;SDS011;55064;49.636;12.164;2023-06-05T19:31:48;8.43;;;3.65;;
68247;SDS011;55064;49.636;12.164;2023-06-05T19:43:28;6.40;;;3.20;;
68247;SDS011;55064;49.636;12.164;2023-06-05T19:49:15;7.32;;;3.17;;
68247;SDS011;55064;49.636;12.164;2023-06-05T19:51:44;7.10;;;3.40;;
68247;SDS011;55064;49.636;12.164;2023-06-05T19:54:09;7.70;;;3.33;;
68247;SDS011;55064;49.636;12.164;2023-06-05T19:56:36;7.50;;;3.20;;
68247;SDS011;55064;49.636;12.164;2023-06-05T20:09:14;6.93;;;3.30;;
68247;SDS011;55064;49.636;12.164;2023-06-05T20:14:29;6.47;;;3.10;;
68247;SDS011;55064;49.636;12.164;2023-06-05T20:34:53;7.00;;;3.28;;
68247;SDS011;55064;49.636;12.164;2023-06-05T20:40:33;7.50;;;3.40;;
68247;SDS011;55064;49.636;12.164;2023-06-05T20:43:16;6.43;;;3.50;;
68247;SDS011;55064;49.636;12.164;2023-06-05T20:46:00;7.40;;;3.60;;
68247;SDS011;55064;49.636;12.164;2023-06-05T20:48:42;6.75;;;3.42;;
68247;SDS011;55064;49.636;12.164;2023-06-05T20:54:27;7.75;;;3.28;;
68247;SDS011;55064;49.636;12.164;2023-06-05T20:56:53;7.97;;;3.90;;
68247;SDS011;55064;49.636;12.164;2023-06-05T20:59:28;7.07;;;3.50;;
68247;SDS011;55064;49.636;12.164;2023-06-05T21:05:13;7.45;;;3.70;;
68247;SDS011;55064;49.636;12.164;2023-06-05T21:07:43;7.60;;;3.95;;
68247;SDS011;55064;49.636;12.164;2023-06-05T21:13:43;8.32;;;3.65;;